Tobaccoville, North Carolina
Current Conditions -  °F | °C
As of 1:54 AM on Sunday 23 Nov 2014 (Local Time) from KINT Reporting Station
Broken Clouds Broken Clouds  
Wind Chill: 40°   Ceiling: 4600
Heat Index: 40°   Visibility: 10mi
Dew Point: 27°   Wind: 0mph
Humidity: 60%   Direction: NA
Pressure: 30.28"   Gusts: NA
Location:  36.24°N, 80.37°W
Report Text: KINT 230654Z AUTO 00000KT 10SM BKN046 04/M03 A3028 RMK AO2 SLP255 T00441028
Loading
Personal Weather Stations






























Interactive Weather Map New forecast layout! Learn more

10-Day Weather Forecast

Advertisements
Track Severe Weather on mobile